createdAt,value
2023-05-09T00:00:07.366Z,58.65
2023-05-09T00:01:07.389Z,56.40
2023-05-09T00:02:07.407Z,58.33
2023-05-09T00:03:07.350Z,56.40
2023-05-09T00:04:07.374Z,60.42
2023-05-09T00:05:07.311Z,55.75
2023-05-09T00:06:07.356Z,57.36
2023-05-09T00:07:07.306Z,57.36
2023-05-09T00:08:07.287Z,56.56
2023-05-09T00:09:07.269Z,58.33
2023-05-09T00:10:07.268Z,57.69
2023-05-09T00:11:07.276Z,55.43
2023-05-09T00:12:07.244Z,57.36
2023-05-09T00:13:07.300Z,56.56
2023-05-09T00:14:07.233Z,56.24
2023-05-09T00:15:07.300Z,56.07
2023-05-09T00:16:07.261Z,58.49
2023-05-09T00:17:07.198Z,60.75
2023-05-09T00:18:07.194Z,57.52
2023-05-09T00:19:07.177Z,54.30
2023-05-09T00:20:07.159Z,59.78
2023-05-09T00:21:07.185Z,58.49
2023-05-09T00:22:07.141Z,60.10
2023-05-09T00:23:07.127Z,60.91
2023-05-09T00:24:07.166Z,60.10
2023-05-09T00:25:08.108Z,61.07
2023-05-09T00:26:07.119Z,59.46
2023-05-09T00:27:07.093Z,61.39
2023-05-09T00:28:07.092Z,56.40
2023-05-09T00:29:07.096Z,62.68
2023-05-09T00:30:07.072Z,58.65
2023-05-09T00:31:07.156Z,58.17
2023-05-09T00:32:07.059Z,60.42
2023-05-09T00:33:07.063Z,61.87
2023-05-09T00:34:07.042Z,63.65
2023-05-09T00:35:07.015Z,60.42
2023-05-09T00:36:07.021Z,61.87
2023-05-09T00:37:06.984Z,61.07
2023-05-09T00:38:06.972Z,58.65
2023-05-09T00:39:06.995Z,57.69
2023-05-09T00:40:06.961Z,59.78
2023-05-09T00:41:06.955Z,56.40
2023-05-09T00:42:06.933Z,60.26
2023-05-09T00:43:06.958Z,62.52
2023-05-09T00:44:06.955Z,61.07
2023-05-09T00:45:06.916Z,60.59
2023-05-09T00:46:06.949Z,60.75
2023-05-09T00:47:06.983Z,59.62
2023-05-09T00:48:06.943Z,61.55
2023-05-09T00:49:06.878Z,59.46
2023-05-09T00:50:06.852Z,57.04
2023-05-09T00:51:06.847Z,57.52
2023-05-09T00:52:06.835Z,55.43
2023-05-09T00:53:06.846Z,57.52
2023-05-09T00:54:09.046Z,57.52
2023-05-09T00:55:07.801Z,60.10
2023-05-09T00:56:06.800Z,58.17
2023-05-09T00:57:06.815Z,56.72
2023-05-09T00:58:06.807Z,59.78
2023-05-09T00:59:06.789Z,58.49
2023-05-09T01:00:06.767Z,58.33
2023-05-09T01:01:06.772Z,60.59
2023-05-09T01:02:06.741Z,61.07
2023-05-09T01:03:06.900Z,60.26
2023-05-09T01:04:06.749Z,60.59
2023-05-09T01:05:06.705Z,60.75
2023-05-09T01:06:06.694Z,61.39
2023-05-09T01:07:06.691Z,58.49
2023-05-09T01:08:06.697Z,58.49
2023-05-09T01:09:06.673Z,59.30
2023-05-09T01:10:06.667Z,60.59
2023-05-09T01:11:06.668Z,61.39
2023-05-09T01:12:06.657Z,59.14
2023-05-09T01:13:06.692Z,59.94
2023-05-09T01:14:06.622Z,58.97
2023-05-09T01:15:06.612Z,60.91
2023-05-09T01:16:06.623Z,61.39
2023-05-09T01:17:06.587Z,61.23
2023-05-09T01:18:06.706Z,60.75
2023-05-09T01:19:06.666Z,60.75
2023-05-09T01:20:06.563Z,59.94
2023-05-09T01:21:06.584Z,61.71
2023-05-09T01:22:06.566Z,60.26
2023-05-09T01:23:06.537Z,59.62
2023-05-09T01:24:06.546Z,60.59
2023-05-09T01:25:06.527Z,62.36
2023-05-09T01:26:06.524Z,61.39
2023-05-09T01:27:06.532Z,63.33
2023-05-09T01:28:06.484Z,60.59
2023-05-09T01:29:06.470Z,60.59
2023-05-09T01:30:06.493Z,64.45
2023-05-09T01:31:06.460Z,64.61
2023-05-09T01:32:06.447Z,61.87
2023-05-09T01:33:06.455Z,61.39
2023-05-09T01:34:06.428Z,62.84
2023-05-09T01:35:06.520Z,60.75
2023-05-09T01:36:06.399Z,59.94
2023-05-09T01:37:06.398Z,60.59
2023-05-09T01:38:06.376Z,63.65
2023-05-09T01:39:06.410Z,62.36
2023-05-09T01:40:06.403Z,63.16
2023-05-09T01:41:06.366Z,61.55
2023-05-09T01:42:06.336Z,62.36
2023-05-09T01:43:06.343Z,62.04
2023-05-09T01:44:06.382Z,62.68
2023-05-09T01:45:06.305Z,62.20
2023-05-09T01:46:06.352Z,64.61
2023-05-09T01:47:06.292Z,62.68
2023-05-09T01:48:06.289Z,63.00
2023-05-09T01:49:06.284Z,61.87
2023-05-09T01:50:06.264Z,61.39
2023-05-09T01:51:06.356Z,60.26
2023-05-09T01:52:06.235Z,62.20
2023-05-09T01:53:06.252Z,60.42
2023-05-09T01:54:06.253Z,60.91
2023-05-09T01:55:06.215Z,58.81
2023-05-09T01:56:06.197Z,59.46
2023-05-09T01:57:06.207Z,61.87
2023-05-09T01:58:07.202Z,60.59
2023-05-09T01:59:06.177Z,59.30
2023-05-09T02:00:06.168Z,57.85
2023-05-09T02:01:06.209Z,58.01
2023-05-09T02:02:06.190Z,58.49
2023-05-09T02:03:06.161Z,59.94
2023-05-09T02:04:06.115Z,60.26
2023-05-09T02:05:06.109Z,61.39
2023-05-09T02:06:06.101Z,61.55
2023-05-09T02:07:06.208Z,60.91
2023-05-09T02:08:06.173Z,59.46
2023-05-09T02:09:06.082Z,59.94
2023-05-09T02:10:06.060Z,62.68
2023-05-09T02:11:06.052Z,61.23
2023-05-09T02:12:06.052Z,59.46
2023-05-09T02:13:06.072Z,59.94
2023-05-09T02:14:06.041Z,61.07
2023-05-09T02:15:06.063Z,58.81
2023-05-09T02:16:06.041Z,61.39
2023-05-09T02:17:06.134Z,60.91
2023-05-09T02:18:06.091Z,61.07
2023-05-09T02:19:05.988Z,61.87
2023-05-09T02:20:05.981Z,62.68
2023-05-09T02:21:06.052Z,60.59
2023-05-09T02:22:05.997Z,61.87
2023-05-09T02:23:06.020Z,61.23
2023-05-09T02:24:05.917Z,61.23
2023-05-09T02:25:06.008Z,63.16
2023-05-09T02:26:05.924Z,63.00
2023-05-09T02:27:05.975Z,64.13
2023-05-09T02:28:05.947Z,63.33
2023-05-09T02:29:05.913Z,62.68
2023-05-09T02:30:05.948Z,61.87
2023-05-09T02:31:05.877Z,62.68
2023-05-09T02:32:05.881Z,62.36
2023-05-09T02:33:05.909Z,62.36
2023-05-09T02:34:05.832Z,63.65
2023-05-09T02:35:05.832Z,62.36
2023-05-09T02:36:05.831Z,61.55
2023-05-09T02:37:05.805Z,63.00
2023-05-09T02:38:05.788Z,62.52
2023-05-09T02:39:05.876Z,63.16
2023-05-09T02:40:05.791Z,63.49
2023-05-09T02:41:05.760Z,62.36
2023-05-09T02:42:05.744Z,62.84
2023-05-09T02:43:05.732Z,62.04
2023-05-09T02:44:05.728Z,63.49
2023-05-09T02:45:05.728Z,65.74
2023-05-09T02:46:05.734Z,64.78
2023-05-09T02:47:05.731Z,63.00
2023-05-09T02:48:08.369Z,63.49
2023-05-09T02:49:06.677Z,65.10
2023-05-09T02:50:05.706Z,64.78
2023-05-09T02:51:05.672Z,64.13
2023-05-09T02:52:05.636Z,65.74
2023-05-09T02:53:05.628Z,65.26
2023-05-09T02:54:05.641Z,65.90
2023-05-09T02:55:05.706Z,63.49
2023-05-09T02:56:05.594Z,64.94
2023-05-09T02:57:05.589Z,65.26
2023-05-09T02:58:12.717Z,64.61
2023-05-09T02:59:07.587Z,65.42
2023-05-09T03:00:05.559Z,62.68
2023-05-09T03:01:05.588Z,63.81
2023-05-09T03:02:05.543Z,62.68
2023-05-09T03:03:05.632Z,65.26
2023-05-09T03:04:05.548Z,65.10
2023-05-09T03:05:05.509Z,65.10
2023-05-09T03:06:05.501Z,63.97
2023-05-09T03:07:05.485Z,63.49
2023-05-09T03:08:05.527Z,65.10
2023-05-09T03:09:05.471Z,65.10
2023-05-09T03:10:05.468Z,63.33
2023-05-09T03:11:05.544Z,63.81
2023-05-09T03:12:05.459Z,65.58
2023-05-09T03:13:05.485Z,67.03
2023-05-09T03:14:05.450Z,64.61
2023-05-09T03:15:05.416Z,65.26
2023-05-09T03:16:05.459Z,65.74
2023-05-09T03:17:05.428Z,64.61
2023-05-09T03:18:05.451Z,66.23
2023-05-09T03:19:05.389Z,64.78
2023-05-09T03:20:05.376Z,64.61
2023-05-09T03:21:05.356Z,65.42
2023-05-09T03:22:05.359Z,68.32
2023-05-09T03:23:05.337Z,64.61
2023-05-09T03:24:05.350Z,66.55
2023-05-09T03:25:05.313Z,66.71
2023-05-09T03:26:05.336Z,66.87
2023-05-09T03:27:05.389Z,65.58
2023-05-09T03:28:05.285Z,67.51
2023-05-09T03:29:05.282Z,68.00
2023-05-09T03:30:05.269Z,68.96
2023-05-09T03:31:05.324Z,67.35
2023-05-09T03:32:05.274Z,66.55
2023-05-09T03:33:05.264Z,68.16
2023-05-09T03:34:05.225Z,66.55
2023-05-09T03:35:05.226Z,66.87
2023-05-09T03:36:05.217Z,67.19
2023-05-09T03:37:06.292Z,67.84
2023-05-09T03:38:05.179Z,67.51
2023-05-09T03:39:05.183Z,67.35
2023-05-09T03:40:05.164Z,66.23
2023-05-09T03:41:05.166Z,68.64
2023-05-09T03:42:05.190Z,68.00
2023-05-09T03:43:05.223Z,68.64
2023-05-09T03:44:05.127Z,67.51
2023-05-09T03:45:05.126Z,68.48
2023-05-09T03:46:05.117Z,67.35
2023-05-09T03:47:05.124Z,68.32
2023-05-09T03:48:05.131Z,68.80
2023-05-09T03:49:05.078Z,69.45
2023-05-09T03:50:37.004Z,68.48
2023-05-09T03:51:05.063Z,69.77
2023-05-09T03:52:05.044Z,67.84
2023-05-09T03:53:05.044Z,68.32
2023-05-09T03:54:05.028Z,69.93
2023-05-09T03:55:05.049Z,69.61
2023-05-09T03:56:05.010Z,70.42
2023-05-09T03:57:04.990Z,68.96
2023-05-09T03:58:04.991Z,68.96
2023-05-09T03:59:05.083Z,68.16
2023-05-09T04:00:04.998Z,67.03
2023-05-09T04:01:04.973Z,67.03
2023-05-09T04:02:04.995Z,69.93
2023-05-09T04:03:05.036Z,69.45
2023-05-09T04:04:05.044Z,67.35
2023-05-09T04:05:04.921Z,67.35
2023-05-09T04:06:04.929Z,68.64
2023-05-09T04:07:04.896Z,67.03
2023-05-09T04:08:04.904Z,65.42
2023-05-09T04:09:04.908Z,65.58
2023-05-09T04:10:04.877Z,66.87
2023-05-09T04:11:04.881Z,68.00
2023-05-09T04:12:04.857Z,68.32
2023-05-09T04:13:04.929Z,69.61
2023-05-09T04:14:04.872Z,69.45
2023-05-09T04:15:05.020Z,69.61
2023-05-09T04:16:04.820Z,69.61
2023-05-09T04:17:04.891Z,68.16
2023-05-09T04:18:04.851Z,67.35
2023-05-09T04:19:04.807Z,68.00
2023-05-09T04:20:04.799Z,68.96
2023-05-09T04:21:04.769Z,68.96
2023-05-09T04:22:04.766Z,67.03
2023-05-09T04:23:04.812Z,68.32
2023-05-09T04:24:04.738Z,66.87
2023-05-09T04:25:04.718Z,66.87
2023-05-09T04:26:04.719Z,68.16
2023-05-09T04:27:04.725Z,66.39
2023-05-09T04:28:04.733Z,67.51
2023-05-09T04:29:04.687Z,68.32
2023-05-09T04:30:04.674Z,66.71
2023-05-09T04:31:04.844Z,67.84
2023-05-09T04:32:04.724Z,65.90
2023-05-09T04:33:04.699Z,66.71
2023-05-09T04:34:04.683Z,66.71
2023-05-09T04:35:04.626Z,67.84
2023-05-09T04:36:04.617Z,67.19
2023-05-09T04:37:04.609Z,66.39
2023-05-09T04:38:04.619Z,66.87
2023-05-09T04:39:04.586Z,66.55
2023-05-09T04:40:04.594Z,66.06
2023-05-09T04:41:04.607Z,65.74
2023-05-09T04:42:04.615Z,66.23
2023-05-09T04:43:04.556Z,66.55
2023-05-09T04:44:04.556Z,68.48
2023-05-09T04:45:04.540Z,65.74
2023-05-09T04:46:04.572Z,66.87
2023-05-09T04:47:04.610Z,67.68
2023-05-09T04:48:04.529Z,66.23
2023-05-09T04:49:04.488Z,67.03
2023-05-09T04:50:04.488Z,66.06
2023-05-09T04:51:04.491Z,65.58
2023-05-09T04:52:04.467Z,66.39
2023-05-09T04:53:04.453Z,66.39
2023-05-09T04:54:04.445Z,66.71
2023-05-09T04:55:04.545Z,66.39
2023-05-09T04:56:04.434Z,64.94
2023-05-09T04:57:14.180Z,64.61
2023-05-09T04:58:06.511Z,65.74
2023-05-09T04:59:04.397Z,65.42
2023-05-09T05:00:04.433Z,63.97
2023-05-09T05:01:04.378Z,66.87
2023-05-09T05:02:04.389Z,66.55
2023-05-09T05:03:04.524Z,66.39
2023-05-09T05:04:04.340Z,66.23
2023-05-09T05:05:11.642Z,66.87
2023-05-09T05:06:06.320Z,65.42
2023-05-09T05:07:04.322Z,65.74
2023-05-09T05:08:04.297Z,65.58
2023-05-09T05:09:04.308Z,63.49
2023-05-09T05:10:04.289Z,65.58
2023-05-09T05:11:04.264Z,66.39
2023-05-09T05:12:06.020Z,65.42
2023-05-09T05:13:04.261Z,65.10
2023-05-09T05:14:04.267Z,65.58
2023-05-09T05:15:04.224Z,64.94
2023-05-09T05:16:04.323Z,64.45
2023-05-09T05:17:04.210Z,64.94
2023-05-09T05:18:04.243Z,63.81
2023-05-09T05:19:04.293Z,64.61
2023-05-09T05:20:04.181Z,64.29
2023-05-09T05:21:04.188Z,62.68
2023-05-09T05:22:04.187Z,63.65
2023-05-09T05:23:04.145Z,63.65
2023-05-09T05:24:04.126Z,64.13
2023-05-09T05:25:04.139Z,63.16
2023-05-09T05:26:04.163Z,62.68
2023-05-09T05:27:04.109Z,62.84
2023-05-09T05:28:04.105Z,63.81
2023-05-09T05:29:04.105Z,62.04
2023-05-09T05:30:04.115Z,63.49
2023-05-09T05:31:04.071Z,62.68
2023-05-09T05:32:04.070Z,62.20
2023-05-09T05:33:04.096Z,60.91
2023-05-09T05:34:04.037Z,61.07
2023-05-09T05:35:04.125Z,60.42
2023-05-09T05:36:04.021Z,61.55
2023-05-09T05:37:04.016Z,62.68
2023-05-09T05:38:04.017Z,62.04
2023-05-09T05:39:03.989Z,63.49
2023-05-09T05:40:03.974Z,60.59
2023-05-09T05:41:04.002Z,61.55
2023-05-09T05:42:03.984Z,61.87
2023-05-09T05:43:03.945Z,61.87
2023-05-09T05:44:03.932Z,62.84
2023-05-09T05:45:03.923Z,61.55
2023-05-09T05:46:04.015Z,60.91
2023-05-09T05:47:03.925Z,61.87
2023-05-09T05:48:04.040Z,60.26
2023-05-09T05:49:03.880Z,62.20
2023-05-09T05:50:03.897Z,61.71
2023-05-09T05:51:03.962Z,59.94
2023-05-09T05:52:03.878Z,61.23
2023-05-09T05:53:03.841Z,61.71
2023-05-09T05:54:03.885Z,61.71
2023-05-09T05:55:03.823Z,61.55
2023-05-09T05:56:03.824Z,59.94
2023-05-09T05:57:03.792Z,61.39
2023-05-09T05:58:03.793Z,58.81
2023-05-09T05:59:03.781Z,61.55
2023-05-09T06:00:03.781Z,59.46
2023-05-09T06:01:03.779Z,59.30
2023-05-09T06:02:03.770Z,59.14
2023-05-09T06:03:03.814Z,60.26
2023-05-09T06:04:03.793Z,59.62
2023-05-09T06:05:03.756Z,63.16
2023-05-09T06:06:03.724Z,63.00
2023-05-09T06:07:03.810Z,60.26
2023-05-09T06:08:03.697Z,60.91
2023-05-09T06:09:03.682Z,60.10
2023-05-09T06:10:03.675Z,60.42
2023-05-09T06:11:03.662Z,62.36
2023-05-09T06:12:03.783Z,61.39
2023-05-09T06:13:03.696Z,60.75
2023-05-09T06:14:03.626Z,60.91
2023-05-09T06:15:03.633Z,60.26
2023-05-09T06:16:15.028Z,60.91
2023-05-09T06:17:05.626Z,60.59
2023-05-09T06:18:03.641Z,60.10
2023-05-09T06:19:03.637Z,62.84
2023-05-09T06:20:03.588Z,59.14
2023-05-09T06:21:03.573Z,60.59
2023-05-09T06:22:03.556Z,59.78
2023-05-09T06:23:03.632Z,60.59
2023-05-09T06:24:11.738Z,58.81
2023-05-09T06:25:06.954Z,59.14
2023-05-09T06:26:03.516Z,59.78
2023-05-09T06:27:03.506Z,59.14
2023-05-09T06:28:03.489Z,57.04
2023-05-09T06:29:03.569Z,59.78
2023-05-09T06:30:14.138Z,61.07
2023-05-09T06:31:05.500Z,57.69
2023-05-09T06:32:03.467Z,60.59
2023-05-09T06:33:03.509Z,60.59
2023-05-09T06:34:03.429Z,60.10
2023-05-09T06:35:03.440Z,58.65
2023-05-09T06:36:03.419Z,58.81
2023-05-09T06:37:03.422Z,61.07
2023-05-09T06:38:03.478Z,58.01
2023-05-09T06:39:03.391Z,60.59
2023-05-09T06:40:03.385Z,58.01
2023-05-09T06:41:03.394Z,60.10
2023-05-09T06:42:03.374Z,58.49
2023-05-09T06:43:03.370Z,60.75
2023-05-09T06:44:03.348Z,58.01
2023-05-09T06:45:03.395Z,58.65
2023-05-09T06:46:03.345Z,58.81
2023-05-09T06:47:03.334Z,58.49
2023-05-09T06:48:03.414Z,59.94
2023-05-09T06:49:03.295Z,55.59
2023-05-09T06:50:03.294Z,57.52
2023-05-09T06:51:03.317Z,59.62
2023-05-09T06:52:03.286Z,59.62
2023-05-09T06:53:03.270Z,59.30
2023-05-09T06:54:03.245Z,57.69
2023-05-09T06:55:03.325Z,58.01
2023-05-09T06:56:03.251Z,60.42
2023-05-09T06:57:03.227Z,62.04
2023-05-09T06:58:03.208Z,59.94
2023-05-09T06:59:03.212Z,58.97
2023-05-09T07:00:03.198Z,59.14
2023-05-09T07:01:03.236Z,58.49
2023-05-09T07:02:03.310Z,56.88
2023-05-09T07:03:03.188Z,53.82
2023-05-09T07:04:03.157Z,58.01
2023-05-09T07:05:03.175Z,57.36
2023-05-09T07:06:03.140Z,57.36
2023-05-09T07:07:03.132Z,55.43
2023-05-09T07:08:03.130Z,53.66
2023-05-09T07:09:03.113Z,54.30
2023-05-09T07:10:11.130Z,58.01
2023-05-09T07:11:05.227Z,58.49
2023-05-09T07:12:03.072Z,58.97
2023-05-09T07:13:03.119Z,57.36
2023-05-09T07:14:03.065Z,53.66
2023-05-09T07:15:03.064Z,54.95
2023-05-09T07:16:03.095Z,56.72
2023-05-09T07:17:21.194Z,56.72
2023-05-09T07:18:05.045Z,55.91
2023-05-09T07:19:03.254Z,58.01
2023-05-09T07:20:03.033Z,55.43
2023-05-09T07:21:02.996Z,57.04
2023-05-09T07:22:02.989Z,56.72
2023-05-09T07:23:03.017Z,54.46
2023-05-09T07:24:02.960Z,54.95
2023-05-09T07:25:02.980Z,54.46
2023-05-09T07:26:02.947Z,56.56
2023-05-09T07:27:02.935Z,56.72
2023-05-09T07:28:02.916Z,55.11
2023-05-09T07:29:02.989Z,56.24
2023-05-09T07:30:02.978Z,56.72
2023-05-09T07:31:02.889Z,54.79
2023-05-09T07:32:02.926Z,54.14
2023-05-09T07:33:02.910Z,54.14
2023-05-09T07:34:03.640Z,54.30
2023-05-09T07:35:02.868Z,54.30
2023-05-09T07:36:02.860Z,57.04
2023-05-09T07:37:03.048Z,55.75
2023-05-09T07:38:02.847Z,54.95
2023-05-09T07:39:02.838Z,54.95
2023-05-09T07:40:02.819Z,56.72
2023-05-09T07:41:02.804Z,56.07
2023-05-09T07:42:02.833Z,55.91
2023-05-09T07:43:03.676Z,53.82
2023-05-09T07:44:03.002Z,55.43
2023-05-09T07:45:02.779Z,54.62
2023-05-09T07:46:02.771Z,55.43
2023-05-09T07:47:02.752Z,57.85
2023-05-09T07:48:02.822Z,54.46
2023-05-09T07:49:02.727Z,54.62
2023-05-09T07:50:02.729Z,55.59
2023-05-09T07:51:02.713Z,53.33
2023-05-09T07:52:02.699Z,51.88
2023-05-09T07:53:02.732Z,53.82
2023-05-09T07:54:02.900Z,55.91
2023-05-09T07:55:02.663Z,55.59
2023-05-09T07:56:03.512Z,57.69
2023-05-09T07:57:02.953Z,54.95
2023-05-09T07:58:02.659Z,55.11
2023-05-09T07:59:02.719Z,54.95
2023-05-09T08:00:02.620Z,56.07
2023-05-09T08:01:02.624Z,54.79
2023-05-09T08:02:02.648Z,54.30
2023-05-09T08:03:02.792Z,55.59
2023-05-09T08:04:02.656Z,56.72
2023-05-09T08:05:02.574Z,54.14
2023-05-09T08:06:03.566Z,56.24
2023-05-09T08:07:02.574Z,53.82
2023-05-09T08:08:02.599Z,56.24
2023-05-09T08:09:02.533Z,53.82
2023-05-09T08:10:02.529Z,55.27
2023-05-09T08:11:02.568Z,53.50
2023-05-09T08:12:02.548Z,52.85
2023-05-09T08:13:02.537Z,53.33
2023-05-09T08:14:02.507Z,53.66
2023-05-09T08:15:02.576Z,53.66
2023-05-09T08:16:02.545Z,55.75
2023-05-09T08:17:02.476Z,55.27
2023-05-09T08:18:02.514Z,55.11
2023-05-09T08:19:02.453Z,54.14
2023-05-09T08:20:02.453Z,54.95
2023-05-09T08:21:02.445Z,54.95
2023-05-09T08:22:02.411Z,54.95
2023-05-09T08:23:02.409Z,53.82
2023-05-09T08:24:02.397Z,53.98
2023-05-09T08:25:02.537Z,53.50
2023-05-09T08:26:02.396Z,56.56
2023-05-09T08:27:02.366Z,54.62
2023-05-09T08:28:02.369Z,53.17
2023-05-09T08:29:02.357Z,56.07
2023-05-09T08:30:02.352Z,54.62
2023-05-09T08:31:02.452Z,55.91
2023-05-09T08:32:02.317Z,60.10
2023-05-09T08:33:02.334Z,56.56
2023-05-09T08:34:02.300Z,53.33
2023-05-09T08:35:02.318Z,53.17
2023-05-09T08:36:02.291Z,55.75
2023-05-09T08:37:02.265Z,54.95
2023-05-09T08:38:02.261Z,55.11
2023-05-09T08:39:02.273Z,52.85
2023-05-09T08:40:02.260Z,55.91
2023-05-09T08:41:02.239Z,55.75
2023-05-09T08:42:02.228Z,55.43
2023-05-09T08:43:02.217Z,53.98
2023-05-09T08:44:02.223Z,54.46
2023-05-09T08:45:02.195Z,53.98
2023-05-09T08:46:02.208Z,54.95
2023-05-09T08:47:02.317Z,55.75
2023-05-09T08:48:02.194Z,55.43
2023-05-09T08:49:02.167Z,56.40
2023-05-09T08:50:02.135Z,51.72
2023-05-09T08:51:02.127Z,54.14
2023-05-09T08:52:02.116Z,56.56
2023-05-09T08:53:02.152Z,56.40
2023-05-09T08:54:02.127Z,54.30
2023-05-09T08:55:02.135Z,54.95
2023-05-09T08:56:02.099Z,54.79
2023-05-09T08:57:02.073Z,54.14
2023-05-09T08:58:02.629Z,55.27
2023-05-09T08:59:02.623Z,54.62
2023-05-09T09:00:02.045Z,54.62
2023-05-09T09:01:02.059Z,53.17
2023-05-09T09:02:02.038Z,54.46
2023-05-09T09:03:02.177Z,54.62
2023-05-09T09:04:02.011Z,57.04
2023-05-09T09:05:02.028Z,55.27
2023-05-09T09:06:01.976Z,57.85
2023-05-09T09:07:01.984Z,54.14
2023-05-09T09:08:01.975Z,56.40
2023-05-09T09:09:01.954Z,53.50
2023-05-09T09:10:01.962Z,54.46
2023-05-09T09:11:01.958Z,55.27
2023-05-09T09:12:01.951Z,55.27
2023-05-09T09:13:01.920Z,54.46
2023-05-09T09:14:01.906Z,52.21
2023-05-09T09:15:01.911Z,54.95
2023-05-09T09:16:01.916Z,54.79
2023-05-09T09:17:01.926Z,54.30
2023-05-09T09:18:01.925Z,55.91
2023-05-09T09:19:01.936Z,54.46
2023-05-09T09:20:01.839Z,53.98
2023-05-09T09:21:01.857Z,55.43
2023-05-09T09:22:01.862Z,54.95
2023-05-09T09:23:01.819Z,52.85
2023-05-09T09:24:01.812Z,54.62
2023-05-09T09:25:01.797Z,55.59
2023-05-09T09:26:01.890Z,56.56
2023-05-09T09:27:01.771Z,54.95
2023-05-09T09:28:01.779Z,56.72
2023-05-09T09:29:01.766Z,54.46
2023-05-09T09:30:01.777Z,55.27
2023-05-09T09:31:01.757Z,53.50
2023-05-09T09:32:01.804Z,52.53
2023-05-09T09:33:01.754Z,54.30
2023-05-09T09:34:01.717Z,53.01
2023-05-09T09:35:01.798Z,53.01
2023-05-09T09:36:01.709Z,56.72
2023-05-09T09:37:01.671Z,55.43
2023-05-09T09:38:01.697Z,53.66
2023-05-09T09:39:01.668Z,53.82
2023-05-09T09:40:01.689Z,54.79
2023-05-09T09:41:01.629Z,53.17
2023-05-09T09:42:02.675Z,53.33
2023-05-09T09:43:01.625Z,53.17
2023-05-09T09:44:01.622Z,54.46
2023-05-09T09:45:01.625Z,57.04
2023-05-09T09:46:01.611Z,56.56
2023-05-09T09:47:01.582Z,54.30
2023-05-09T09:48:01.611Z,55.27
2023-05-09T09:49:01.594Z,53.01
2023-05-09T09:50:01.605Z,53.66
2023-05-09T09:51:01.638Z,52.21
2023-05-09T09:52:33.929Z,51.56
2023-05-09T09:53:01.527Z,50.92
2023-05-09T09:54:02.554Z,53.01
2023-05-09T09:55:01.525Z,54.62
2023-05-09T09:56:01.507Z,52.21
2023-05-09T09:57:01.490Z,49.95
2023-05-09T09:58:01.493Z,51.08
2023-05-09T09:59:01.489Z,51.88
2023-05-09T10:00:01.455Z,51.56
2023-05-09T10:01:01.474Z,52.37
2023-05-09T10:02:03.989Z,53.17
2023-05-09T10:03:01.541Z,51.88
2023-05-09T10:04:01.464Z,51.56
2023-05-09T10:05:01.411Z,51.56
2023-05-09T10:06:01.403Z,50.60
2023-05-09T10:07:01.489Z,50.43
2023-05-09T10:08:01.415Z,51.24
2023-05-09T10:09:01.385Z,50.92
2023-05-09T10:10:01.408Z,50.76
2023-05-09T10:11:01.359Z,52.05
2023-05-09T10:12:01.371Z,51.88
2023-05-09T10:13:01.436Z,51.40
2023-05-09T10:14:01.346Z,52.53
2023-05-09T10:15:01.324Z,52.05
2023-05-09T10:16:01.425Z,49.63
2023-05-09T10:17:01.428Z,50.76
2023-05-09T10:18:01.503Z,50.11
2023-05-09T10:19:01.370Z,53.33
2023-05-09T10:20:01.258Z,54.14
2023-05-09T10:21:01.263Z,50.92
2023-05-09T10:22:01.297Z,49.95
2023-05-09T10:23:01.329Z,51.56
2023-05-09T10:24:01.219Z,50.92
2023-05-09T10:25:01.230Z,50.60
2023-05-09T10:26:01.231Z,48.98
2023-05-09T10:27:01.210Z,49.79
2023-05-09T10:28:01.198Z,51.08
2023-05-09T10:29:01.236Z,50.76
2023-05-09T10:30:01.172Z,50.92
2023-05-09T10:31:01.196Z,50.43
2023-05-09T10:32:01.147Z,52.05
2023-05-09T10:33:01.168Z,52.37
2023-05-09T10:34:01.135Z,50.92
2023-05-09T10:35:01.127Z,50.60
2023-05-09T10:36:01.129Z,49.31
2023-05-09T10:37:01.105Z,50.60
2023-05-09T10:38:01.085Z,49.47
2023-05-09T10:39:01.181Z,49.63
2023-05-09T10:40:01.111Z,50.60
2023-05-09T10:41:01.079Z,49.15
2023-05-09T10:42:01.085Z,49.47
2023-05-09T10:43:01.113Z,50.43
2023-05-09T10:44:01.037Z,50.27
2023-05-09T10:45:01.084Z,50.43
2023-05-09T10:46:01.008Z,50.76
2023-05-09T10:47:01.032Z,51.56
2023-05-09T10:48:01.060Z,50.43
2023-05-09T10:49:00.987Z,49.63
2023-05-09T10:50:01.993Z,50.60
2023-05-09T10:51:00.955Z,50.11
2023-05-09T10:52:00.946Z,49.95
2023-05-09T10:53:00.933Z,51.40
2023-05-09T10:54:00.970Z,50.43
2023-05-09T10:55:01.043Z,50.60
2023-05-09T10:56:00.916Z,50.92
2023-05-09T10:57:00.898Z,49.95
2023-05-09T10:58:00.887Z,51.56
2023-05-09T10:59:00.926Z,51.40
2023-05-09T11:00:00.887Z,52.05
2023-05-09T11:01:00.861Z,51.56
2023-05-09T11:02:01.133Z,52.53
2023-05-09T11:03:00.876Z,53.82
2023-05-09T11:04:00.883Z,52.53
2023-05-09T11:05:00.839Z,51.72
2023-05-09T11:06:00.813Z,51.24
2023-05-09T11:07:00.827Z,51.08
2023-05-09T11:08:00.792Z,50.92
2023-05-09T11:09:00.815Z,51.40
2023-05-09T11:10:00.767Z,53.01
2023-05-09T11:11:00.857Z,52.69
2023-05-09T11:12:00.762Z,54.62
2023-05-09T11:13:00.832Z,53.66
2023-05-09T11:14:00.792Z,52.21
2023-05-09T11:15:00.769Z,53.01
2023-05-09T11:16:01.833Z,52.69
2023-05-09T11:17:00.731Z,53.66
2023-05-09T11:18:00.712Z,52.05
2023-05-09T11:19:00.729Z,50.92
2023-05-09T11:20:00.689Z,50.92
2023-05-09T11:21:00.673Z,51.88
2023-05-09T11:22:00.662Z,51.24
2023-05-09T11:23:00.657Z,52.37
2023-05-09T11:24:00.652Z,52.05
2023-05-09T11:25:00.628Z,51.40
2023-05-09T11:26:00.621Z,50.76
2023-05-09T11:27:00.718Z,49.31
2023-05-09T11:28:00.608Z,50.60
2023-05-09T11:29:00.609Z,49.95
2023-05-09T11:30:00.582Z,50.92
2023-05-09T11:31:00.571Z,53.33
2023-05-09T11:32:00.666Z,50.60
2023-05-09T11:33:00.602Z,51.08
2023-05-09T11:34:00.552Z,52.21
2023-05-09T11:35:00.556Z,52.53
2023-05-09T11:36:00.546Z,54.62
2023-05-09T11:37:00.533Z,52.53
2023-05-09T11:38:00.509Z,53.50
2023-05-09T11:39:00.496Z,53.98
2023-05-09T11:40:00.511Z,53.01
2023-05-09T11:41:00.531Z,54.62
2023-05-09T11:42:00.495Z,52.85
2023-05-09T11:43:00.557Z,52.53
2023-05-09T11:44:00.474Z,53.01
2023-05-09T11:45:00.470Z,52.85
2023-05-09T11:46:00.511Z,54.14
2023-05-09T11:47:00.433Z,54.14
2023-05-09T11:48:00.499Z,53.82
2023-05-09T11:49:00.399Z,53.66
2023-05-09T11:50:00.429Z,54.62
2023-05-09T11:51:00.416Z,54.95
2023-05-09T11:52:00.398Z,56.07
2023-05-09T11:53:00.393Z,54.95
2023-05-09T11:54:00.358Z,52.85
2023-05-09T11:55:00.347Z,53.01
2023-05-09T11:56:00.344Z,53.50
2023-05-09T11:57:00.408Z,53.50
2023-05-09T11:58:00.332Z,53.66
2023-05-09T11:59:00.394Z,53.82
2023-05-09T12:00:00.294Z,54.46
2023-05-09T12:01:00.292Z,53.82
2023-05-09T12:02:00.321Z,53.98
2023-05-09T12:03:00.335Z,53.82
2023-05-09T12:04:00.333Z,51.24
2023-05-09T12:05:00.269Z,52.05
2023-05-09T12:06:00.250Z,52.85
2023-05-09T12:07:00.235Z,53.50
2023-05-09T12:08:00.219Z,54.30
2023-05-09T12:09:00.222Z,51.08
2023-05-09T12:10:00.252Z,53.01
2023-05-09T12:11:00.193Z,51.24
2023-05-09T12:12:00.181Z,53.50
2023-05-09T12:13:00.216Z,51.72
2023-05-09T12:14:00.173Z,51.40
2023-05-09T12:15:00.256Z,50.92
2023-05-09T12:16:00.207Z,51.88
2023-05-09T12:17:00.150Z,51.56
2023-05-09T12:18:00.228Z,49.63
2023-05-09T12:19:00.160Z,50.11
2023-05-09T12:20:00.120Z,50.27
2023-05-09T12:21:00.108Z,49.63
2023-05-09T12:22:00.117Z,50.27
2023-05-09T12:23:01.105Z,50.92
2023-05-09T12:24:00.111Z,49.63
2023-05-09T12:25:00.061Z,49.79
2023-05-09T12:26:00.056Z,50.43
2023-05-09T12:27:00.051Z,53.33
2023-05-09T12:28:00.072Z,52.05
2023-05-09T12:29:00.022Z,50.60
2023-05-09T12:30:00.031Z,51.40
2023-05-09T12:31:00.032Z,50.92
2023-05-09T12:32:00.057Z,50.27
2023-05-09T12:33:00.068Z,50.60
2023-05-09T12:33:59.977Z,50.60
2023-05-09T12:34:59.967Z,50.27
2023-05-09T12:35:59.959Z,53.17
2023-05-09T12:36:59.991Z,51.24
2023-05-09T12:37:59.937Z,50.92
2023-05-09T12:38:59.932Z,52.53
2023-05-09T12:39:59.954Z,52.85
2023-05-09T12:41:02.153Z,53.33
2023-05-09T12:42:01.897Z,50.92
2023-05-09T12:43:00.959Z,50.76
2023-05-09T12:43:59.899Z,50.92
2023-05-09T12:44:59.896Z,49.47
2023-05-09T12:45:59.864Z,49.47
2023-05-09T12:47:00.017Z,50.11
2023-05-09T12:47:59.885Z,50.27
2023-05-09T12:48:59.825Z,50.92
2023-05-09T12:49:59.845Z,50.27
2023-05-09T12:50:59.826Z,50.60
2023-05-09T12:52:01.112Z,49.79